Time,TemperatureF,DewpointF,PressureIn,WindDirection,WindDirectionDegrees,WindSpeedMPH,WindSpeedGustMPH,Humidity,HourlyPrecipIn,Conditions,Clouds,dailyrainin,SoftwareType,DateUTC
2013-08-15 00:01:00,55.9,52.4,30.01,North,0,0.0,0.0,88,0.00,,,0.00,pywws,2013-08-15 04:01:00,
2013-08-15 00:02:00,55.9,52.4,30.02,North,0,0.0,0.0,88,0.00,,,0.00,pywws,2013-08-15 04:02:00,
2013-08-15 00:05:00,55.8,52.6,30.02,North,0,0.0,0.0,89,0.00,,,0.00,pywws,2013-08-15 04:05:00,
2013-08-15 00:07:00,55.8,52.6,30.01,North,0,0.0,0.0,89,0.00,,,0.00,pywws,2013-08-15 04:07:00,
2013-08-15 00:11:00,55.8,52.6,30.02,North,0,0.0,0.0,89,0.00,,,0.00,pywws,2013-08-15 04:11:00,
2013-08-15 00:17:00,55.6,52.7,30.02,North,0,0.0,0.0,90,0.00,,,0.00,pywws,2013-08-15 04:17:00,
2013-08-15 00:22:00,55.4,52.5,30.02,North,0,0.0,0.0,90,0.00,,,0.00,pywws,2013-08-15 04:22:00,
2013-08-15 00:28:00,55.0,52.5,30.02,North,0,0.0,0.0,91,0.00,,,0.00,pywws,2013-08-15 04:28:00,
2013-08-15 00:34:00,54.9,52.3,30.02,North,0,0.0,0.0,91,0.00,,,0.00,pywws,2013-08-15 04:34:00,
2013-08-15 00:41:00,54.3,51.7,30.02,North,0,0.0,0.0,91,0.00,,,0.00,pywws,2013-08-15 04:41:00,
2013-08-15 00:47:00,54.1,51.9,30.03,North,0,0.0,0.0,92,0.00,,,0.00,pywws,2013-08-15 04:47:00,
2013-08-15 00:53:00,54.0,51.7,30.03,North,0,0.0,0.0,92,0.00,,,0.00,pywws,2013-08-15 04:53:00,
2013-08-15 00:58:00,53.8,51.8,30.03,North,0,0.0,0.0,93,0.00,,,0.00,pywws,2013-08-15 04:58:00,
2013-08-15 01:04:00,53.6,51.6,30.03,North,0,0.0,0.0,93,0.00,,,0.00,pywws,2013-08-15 05:04:00,
2013-08-15 01:10:00,53.4,51.7,30.03,North,0,0.0,0.0,94,0.00,,,0.00,pywws,2013-08-15 05:10:00,
2013-08-15 01:15:00,53.1,51.7,30.03,North,0,0.0,0.0,95,0.00,,,0.00,pywws,2013-08-15 05:15:00,
2013-08-15 01:21:00,53.2,51.8,30.03,North,0,0.0,0.0,95,0.00,,,0.00,pywws,2013-08-15 05:21:00,
2013-08-15 01:27:00,53.1,51.9,30.03,North,0,0.0,0.0,96,0.00,,,0.00,pywws,2013-08-15 05:27:00,
2013-08-15 01:33:00,52.7,51.6,30.03,North,0,0.0,0.0,96,0.00,,,0.00,pywws,2013-08-15 05:33:00,
2013-08-15 01:38:00,52.7,51.6,30.03,North,0,0.0,0.0,96,0.00,,,0.00,pywws,2013-08-15 05:38:00,
2013-08-15 01:44:00,52.3,51.5,30.03,North,0,0.0,0.0,97,0.00,,,0.00,pywws,2013-08-15 05:44:00,
2013-08-15 01:50:00,52.3,51.5,30.03,North,0,0.0,0.0,97,0.00,,,0.00,pywws,2013-08-15 05:50:00,
2013-08-15 01:56:00,52.3,51.5,30.03,North,0,0.0,0.0,97,0.00,,,0.00,pywws,2013-08-15 05:56:00,
2013-08-15 02:02:00,52.0,51.2,30.03,North,0,0.0,0.0,97,0.00,,,0.00,pywws,2013-08-15 06:02:00,
2013-08-15 02:07:00,51.6,51.3,30.03,North,0,0.0,0.0,99,0.00,,,0.00,pywws,2013-08-15 06:07:00,
2013-08-15 02:13:00,51.4,51.2,30.03,North,0,0.0,0.0,99,0.00,,,0.00,pywws,2013-08-15 06:13:00,
2013-08-15 02:21:00,51.6,51.3,30.03,North,0,0.0,0.0,99,0.00,,,0.00,pywws,2013-08-15 06:21:00,
2013-08-15 02:28:00,51.3,51.0,30.03,North,0,0.0,0.0,99,0.00,,,0.00,pywws,2013-08-15 06:28:00,
2013-08-15 02:34:00,51.1,50.8,30.04,North,0,0.0,0.0,99,0.00,,,0.00,pywws,2013-08-15 06:34:00,
2013-08-15 02:40:00,51.4,51.2,30.04,North,0,0.0,0.0,99,0.00,,,0.00,pywws,2013-08-15 06:40:00,
2013-08-15 02:46:00,51.3,51.0,30.04,North,0,0.0,0.0,99,0.00,,,0.00,pywws,2013-08-15 06:46:00,
2013-08-15 02:52:00,51.3,51.0,30.04,North,0,0.0,0.0,99,0.00,,,0.00,pywws,2013-08-15 06:52:00,
2013-08-15 02:58:00,50.9,50.6,30.05,North,0,0.0,0.0,99,0.00,,,0.00,pywws,2013-08-15 06:58:00,
2013-08-15 03:05:00,50.9,50.6,30.05,North,0,0.0,0.0,99,0.00,,,0.00,pywws,2013-08-15 07:05:00,
2013-08-15 03:10:00,50.9,50.6,30.05,North,0,0.0,0.0,99,0.00,,,0.00,pywws,2013-08-15 07:10:00,
2013-08-15 03:16:00,50.5,50.3,30.05,North,0,0.0,0.0,99,0.00,,,0.00,pywws,2013-08-15 07:16:00,
2013-08-15 03:22:00,50.5,50.3,30.05,North,0,0.0,0.0,99,0.00,,,0.00,pywws,2013-08-15 07:22:00,
2013-08-15 03:28:00,50.4,50.1,30.05,North,0,0.0,0.0,99,0.00,,,0.00,pywws,2013-08-15 07:28:00,
2013-08-15 03:35:00,50.2,49.9,30.05,North,0,0.0,0.0,99,0.00,,,0.00,pywws,2013-08-15 07:35:00,
2013-08-15 03:42:00,50.4,50.1,30.05,North,0,0.0,0.0,99,0.00,,,0.00,pywws,2013-08-15 07:42:00,
2013-08-15 03:48:00,50.2,49.9,30.06,North,0,0.0,0.0,99,0.00,,,0.00,pywws,2013-08-15 07:48:00,
2013-08-15 03:54:00,50.2,49.9,30.06,North,0,0.0,0.0,99,0.00,,,0.00,pywws,2013-08-15 07:54:00,
2013-08-15 03:59:00,49.8,49.5,30.06,North,0,0.0,0.0,99,0.00,,,0.00,pywws,2013-08-15 07:59:00,
2013-08-15 04:06:00,49.8,49.5,30.06,North,0,0.0,0.0,99,0.00,,,0.00,pywws,2013-08-15 08:06:00,
2013-08-15 04:12:00,49.5,49.2,30.06,North,0,0.0,0.0,99,0.00,,,0.00,pywws,2013-08-15 08:12:00,
2013-08-15 04:18:00,49.6,49.4,30.06,North,0,0.0,0.0,99,0.00,,,0.00,pywws,2013-08-15 08:18:00,
2013-08-15 04:24:00,49.5,49.2,30.06,North,0,0.0,0.0,99,0.00,,,0.00,pywws,2013-08-15 08:24:00,
2013-08-15 04:30:00,49.8,49.5,30.06,North,0,0.0,0.0,99,0.00,,,0.00,pywws,2013-08-15 08:30:00,
2013-08-15 04:36:00,49.5,49.2,30.06,North,0,0.0,0.0,99,0.00,,,0.00,pywws,2013-08-15 08:36:00,
2013-08-15 04:42:00,49.8,49.5,30.06,North,0,0.0,0.0,99,0.00,,,0.00,pywws,2013-08-15 08:42:00,
2013-08-15 04:47:00,49.3,49.0,30.06,North,0,0.0,0.0,99,0.00,,,0.00,pywws,2013-08-15 08:47:00,
2013-08-15 04:53:00,49.5,49.2,30.06,North,0,0.0,0.0,99,0.00,,,0.00,pywws,2013-08-15 08:53:00,
2013-08-15 04:58:00,49.3,49.0,30.07,North,0,0.0,0.0,99,0.00,,,0.00,pywws,2013-08-15 08:58:00,
2013-08-15 05:04:00,48.9,48.7,30.06,North,0,0.0,0.0,99,0.00,,,0.00,pywws,2013-08-15 09:04:00,
2013-08-15 05:10:00,48.9,48.7,30.07,North,0,0.0,0.0,99,0.00,,,0.00,pywws,2013-08-15 09:10:00,
2013-08-15 05:16:00,48.7,48.5,30.07,North,0,0.0,0.0,99,0.00,,,0.00,pywws,2013-08-15 09:16:00,
2013-08-15 05:22:00,48.6,48.3,30.07,North,0,0.0,0.0,99,0.00,,,0.00,pywws,2013-08-15 09:22:00,
2013-08-15 05:28:00,48.6,48.3,30.08,North,0,0.0,0.0,99,0.00,,,0.00,pywws,2013-08-15 09:28:00,
2013-08-15 05:34:00,48.6,48.3,30.08,North,0,0.0,0.0,99,0.00,,,0.00,pywws,2013-08-15 09:34:00,
2013-08-15 05:39:00,48.6,48.3,30.08,North,0,0.0,0.0,99,0.00,,,0.00,pywws,2013-08-15 09:39:00,
2013-08-15 05:46:00,48.4,48.1,30.08,North,0,0.0,0.0,99,0.00,,,0.00,pywws,2013-08-15 09:46:00,
2013-08-15 05:52:00,48.2,47.9,30.09,North,0,0.0,0.0,99,0.00,,,0.00,pywws,2013-08-15 09:52:00,
2013-08-15 05:58:00,48.4,48.1,30.09,North,0,0.0,0.0,99,0.00,,,0.00,pywws,2013-08-15 09:58:00,
2013-08-15 06:04:00,48.6,48.3,30.09,North,0,0.0,0.0,99,0.00,,,0.00,pywws,2013-08-15 10:04:00,
2013-08-15 06:12:00,48.4,48.1,30.09,North,0,0.0,0.0,99,0.00,,,0.00,pywws,2013-08-15 10:12:00,
2013-08-15 06:19:00,48.4,48.1,30.10,North,0,0.0,0.0,99,0.00,,,0.00,pywws,2013-08-15 10:19:00,
2013-08-15 06:26:00,48.6,48.3,30.10,North,0,0.0,0.0,99,0.00,,,0.00,pywws,2013-08-15 10:26:00,
2013-08-15 06:32:00,48.9,48.7,30.10,North,0,0.0,0.0,99,0.00,,,0.00,pywws,2013-08-15 10:32:00,
2013-08-15 06:39:00,49.3,49.0,30.10,North,0,0.0,0.0,99,0.00,,,0.00,pywws,2013-08-15 10:39:00,
2013-08-15 06:45:00,49.6,49.4,30.10,North,0,0.0,0.0,99,0.00,,,0.00,pywws,2013-08-15 10:45:00,
2013-08-15 06:50:00,50.0,49.7,30.10,North,0,0.0,0.0,99,0.00,,,0.00,pywws,2013-08-15 10:50:00,
2013-08-15 06:56:00,50.4,50.1,30.11,North,0,0.0,0.0,99,0.00,,,0.00,pywws,2013-08-15 10:56:00,
2013-08-15 07:02:00,50.9,50.6,30.10,North,0,0.0,0.0,99,0.00,,,0.00,pywws,2013-08-15 11:02:00,
2013-08-15 07:08:00,51.3,51.0,30.10,North,0,0.0,0.0,99,0.00,,,0.00,pywws,2013-08-15 11:08:00,
2013-08-15 07:14:00,52.0,51.4,30.10,North,0,0.0,0.0,98,0.00,,,0.00,pywws,2013-08-15 11:14:00,
2013-08-15 07:20:00,52.7,52.2,30.10,North,0,0.0,0.0,98,0.00,,,0.00,pywws,2013-08-15 11:20:00,
2013-08-15 07:26:00,53.4,52.9,30.11,North,0,0.0,0.0,98,0.00,,,0.00,pywws,2013-08-15 11:26:00,
2013-08-15 07:31:00,54.1,53.3,30.10,North,0,0.0,0.0,97,0.00,,,0.00,pywws,2013-08-15 11:31:00,
2013-08-15 07:38:00,55.2,54.4,30.11,South,180,0.0,0.0,97,0.00,,,0.00,pywws,2013-08-15 11:38:00,
2013-08-15 07:43:00,58.8,58.5,30.11,South,180,0.0,0.0,99,0.00,,,0.00,pywws,2013-08-15 11:43:00,
2013-08-15 07:49:00,61.9,61.3,30.11,South,180,0.0,0.0,98,0.00,,,0.00,pywws,2013-08-15 11:49:00,
2013-08-15 07:54:00,64.6,64.0,30.11,South,180,0.0,0.0,98,0.00,,,0.00,pywws,2013-08-15 11:54:00,
2013-08-15 08:00:00,64.6,63.4,30.11,South,180,0.0,0.0,96,0.00,,,0.00,pywws,2013-08-15 12:00:00,
2013-08-15 08:06:00,66.2,60.5,30.10,South,180,0.0,0.0,82,0.00,,,0.00,pywws,2013-08-15 12:06:00,
2013-08-15 08:11:00,66.7,56.2,30.10,South,180,0.0,0.0,69,0.00,,,0.00,pywws,2013-08-15 12:11:00,
2013-08-15 08:17:00,69.3,57.4,30.11,South,180,0.0,0.0,66,0.00,,,0.00,pywws,2013-08-15 12:17:00,
2013-08-15 08:22:00,70.2,56.5,30.11,South,180,0.0,0.0,62,0.00,,,0.00,pywws,2013-08-15 12:22:00,
2013-08-15 08:28:00,69.6,54.6,30.11,South,180,0.0,0.0,59,0.00,,,0.00,pywws,2013-08-15 12:28:00,
2013-08-15 08:34:00,70.3,54.8,30.11,South,180,0.0,0.0,58,0.00,,,0.00,pywws,2013-08-15 12:34:00,
2013-08-15 08:39:00,72.1,55.1,30.11,South,180,0.0,0.0,55,0.00,,,0.00,pywws,2013-08-15 12:39:00,
2013-08-15 08:45:00,70.3,52.9,30.11,South,180,0.0,0.0,54,0.00,,,0.00,pywws,2013-08-15 12:45:00,
2013-08-15 08:50:00,72.3,54.7,30.11,West,270,0.0,0.0,54,0.00,,,0.00,pywws,2013-08-15 12:50:00,
2013-08-15 08:56:00,72.3,53.2,30.11,East,90,0.0,0.0,51,0.00,,,0.00,pywws,2013-08-15 12:56:00,
2013-08-15 09:02:00,72.0,52.8,30.11,West,270,0.0,0.0,51,0.00,,,0.00,pywws,2013-08-15 13:02:00,
2013-08-15 09:07:00,71.2,53.2,30.10,East,90,0.0,0.0,53,0.00,,,0.00,pywws,2013-08-15 13:07:00,
2013-08-15 09:13:00,71.1,53.6,30.11,West,270,0.0,0.0,54,0.00,,,0.00,pywws,2013-08-15 13:13:00,
2013-08-15 09:18:00,71.1,53.6,30.11,West,270,0.0,0.0,54,0.00,,,0.00,pywws,2013-08-15 13:18:00,
2013-08-15 09:24:00,71.2,53.7,30.11,West,270,0.0,0.0,54,0.00,,,0.00,pywws,2013-08-15 13:24:00,
2013-08-15 09:30:00,70.0,53.6,30.12,West,270,0.0,0.0,56,0.00,,,0.00,pywws,2013-08-15 13:30:00,
2013-08-15 09:35:00,70.3,54.4,30.11,West,270,0.0,0.0,57,0.00,,,0.00,pywws,2013-08-15 13:35:00,
2013-08-15 09:41:00,70.3,52.9,30.11,North,0,0.0,0.0,54,0.00,,,0.00,pywws,2013-08-15 13:41:00,
2013-08-15 09:46:00,69.6,52.7,30.11,South,180,0.0,0.0,55,0.00,,,0.00,pywws,2013-08-15 13:46:00,
2013-08-15 09:52:00,69.8,52.4,30.11,West,270,0.0,0.0,54,0.00,,,0.00,pywws,2013-08-15 13:52:00,
2013-08-15 09:58:00,70.2,52.2,30.11,East,90,0.0,0.0,53,0.00,,,0.00,pywws,2013-08-15 13:58:00,
2013-08-15 10:04:00,70.3,52.4,30.11,West,270,0.0,0.0,53,0.00,,,0.00,pywws,2013-08-15 14:04:00,
2013-08-15 10:10:00,69.6,52.2,30.11,West,270,0.0,0.0,54,0.00,,,0.00,pywws,2013-08-15 14:10:00,
2013-08-15 10:16:00,70.3,53.4,30.11,West,270,0.0,0.0,55,0.00,,,0.00,pywws,2013-08-15 14:16:00,
2013-08-15 10:22:00,71.2,53.7,30.11,North,0,0.0,0.0,54,0.00,,,0.00,pywws,2013-08-15 14:22:00,
2013-08-15 10:28:00,70.2,49.5,30.12,West,270,0.0,0.7,48,0.00,,,0.00,pywws,2013-08-15 14:28:00,
2013-08-15 10:34:00,70.2,50.1,30.11,SW,225,0.0,0.0,49,0.00,,,0.00,pywws,2013-08-15 14:34:00,
2013-08-15 10:40:00,71.1,52.0,30.12,NW,315,0.0,3.1,51,0.00,,,0.00,pywws,2013-08-15 14:40:00,
2013-08-15 10:46:00,71.4,52.9,30.11,West,270,0.0,0.0,52,0.00,,,0.00,pywws,2013-08-15 14:46:00,
2013-08-15 10:52:00,71.6,51.4,30.11,NW,315,0.0,0.0,49,0.00,,,0.00,pywws,2013-08-15 14:52:00,
2013-08-15 10:58:00,71.1,50.9,30.11,North,0,0.0,0.7,49,0.00,,,0.00,pywws,2013-08-15 14:58:00,
2013-08-15 11:03:00,72.0,51.2,30.11,West,270,0.0,0.0,48,0.00,,,0.00,pywws,2013-08-15 15:03:00,
2013-08-15 11:09:00,71.6,50.9,30.12,West,270,0.0,0.0,48,0.00,,,0.00,pywws,2013-08-15 15:09:00,
2013-08-15 11:14:00,71.8,49.3,30.11,West,270,0.0,0.0,45,0.00,,,0.00,pywws,2013-08-15 15:14:00,
2013-08-15 11:20:00,72.7,50.7,30.12,South,180,0.0,0.0,46,0.00,,,0.00,pywws,2013-08-15 15:20:00,
2013-08-15 11:26:00,73.6,53.2,30.11,South,180,0.0,0.0,49,0.00,,,0.00,pywws,2013-08-15 15:26:00,
2013-08-15 11:32:00,72.5,50.5,30.11,South,180,0.0,0.0,46,0.00,,,0.00,pywws,2013-08-15 15:32:00,
2013-08-15 11:38:00,73.2,52.9,30.11,SW,225,0.0,0.0,49,0.00,,,0.00,pywws,2013-08-15 15:38:00,
2013-08-15 11:44:00,73.4,52.5,30.11,NE,45,0.0,0.0,48,0.00,,,0.00,pywws,2013-08-15 15:44:00,
2013-08-15 11:50:00,72.0,50.0,30.11,North,0,0.0,0.0,46,0.00,,,0.00,pywws,2013-08-15 15:50:00,
2013-08-15 11:56:00,73.6,52.1,30.11,SE,135,0.0,0.0,47,0.00,,,0.00,pywws,2013-08-15 15:56:00,
2013-08-15 12:02:00,75.6,54.5,30.11,South,180,0.0,0.0,48,0.00,,,0.00,pywws,2013-08-15 16:02:00,
2013-08-15 12:08:00,72.3,50.4,30.11,West,270,0.0,0.0,46,0.00,,,0.00,pywws,2013-08-15 16:08:00,
2013-08-15 12:14:00,74.7,53.7,30.11,North,0,0.0,0.0,48,0.00,,,0.00,pywws,2013-08-15 16:14:00,
2013-08-15 12:20:00,74.8,53.2,30.10,West,270,0.0,0.7,47,0.00,,,0.00,pywws,2013-08-15 16:20:00,
2013-08-15 12:26:00,76.6,53.7,30.10,West,270,0.0,0.7,45,0.00,,,0.00,pywws,2013-08-15 16:26:00,
2013-08-15 12:31:00,71.8,48.1,30.10,West,270,0.0,0.0,43,0.00,,,0.00,pywws,2013-08-15 16:31:00,
2013-08-15 12:37:00,76.5,54.7,30.10,SW,225,0.0,0.7,47,0.00,,,0.00,pywws,2013-08-15 16:37:00,
2013-08-15 12:42:00,78.1,54.4,30.10,South,180,0.0,0.0,44,0.00,,,0.00,pywws,2013-08-15 16:42:00,
2013-08-15 12:48:00,76.1,51.3,30.10,North,0,0.0,0.0,42,0.00,,,0.00,pywws,2013-08-15 16:48:00,
2013-08-15 12:54:00,73.4,50.8,30.10,West,270,0.0,1.6,45,0.00,,,0.00,pywws,2013-08-15 16:54:00,
2013-08-15 12:59:00,73.2,51.8,30.09,SW,225,0.0,0.0,47,0.00,,,0.00,pywws,2013-08-15 16:59:00,
2013-08-15 13:05:00,75.2,53.6,30.10,North,0,0.0,0.0,47,0.00,,,0.00,pywws,2013-08-15 17:05:00,
2013-08-15 13:10:00,72.7,51.8,30.09,North,0,0.0,0.0,48,0.00,,,0.00,pywws,2013-08-15 17:10:00,
2013-08-15 13:16:00,73.9,53.0,30.09,North,0,0.0,1.6,48,0.00,,,0.00,pywws,2013-08-15 17:16:00,
2013-08-15 13:21:00,75.0,54.0,30.09,West,270,0.0,0.0,48,0.00,,,0.00,pywws,2013-08-15 17:21:00,
2013-08-15 13:26:00,78.3,54.5,30.09,NW,315,0.0,0.0,44,0.00,,,0.00,pywws,2013-08-15 17:26:00,
2013-08-15 13:32:00,75.9,50.5,30.09,West,270,0.0,0.0,41,0.00,,,0.00,pywws,2013-08-15 17:32:00,
2013-08-15 13:38:00,77.9,52.3,30.09,South,180,0.0,0.0,41,0.00,,,0.00,pywws,2013-08-15 17:38:00,
2013-08-15 13:44:00,78.8,51.7,30.09,SW,225,0.0,0.0,39,0.00,,,0.00,pywws,2013-08-15 17:44:00,
2013-08-15 13:50:00,77.7,50.8,30.09,SE,135,0.0,2.2,39,0.00,,,0.00,pywws,2013-08-15 17:50:00,
2013-08-15 13:55:00,78.3,53.9,30.09,West,270,0.0,0.7,43,0.00,,,0.00,pywws,2013-08-15 17:55:00,
2013-08-15 14:00:00,77.0,52.1,30.09,West,270,0.0,2.2,42,0.00,,,0.00,pywws,2013-08-15 18:00:00,
2013-08-15 14:06:00,79.2,54.7,30.09,SW,225,0.0,0.0,43,0.00,,,0.00,pywws,2013-08-15 18:06:00,
2013-08-15 14:11:00,80.6,54.7,30.09,SE,135,0.0,0.7,41,0.00,,,0.00,pywws,2013-08-15 18:11:00,
2013-08-15 14:17:00,80.4,55.2,30.08,South,180,0.0,0.0,42,0.00,,,0.00,pywws,2013-08-15 18:17:00,
2013-08-15 14:22:00,79.2,52.7,30.08,North,0,0.0,0.0,40,0.00,,,0.00,pywws,2013-08-15 18:22:00,
2013-08-15 14:28:00,78.4,52.1,30.09,SE,135,0.0,1.6,40,0.00,,,0.00,pywws,2013-08-15 18:28:00,
2013-08-15 14:34:00,80.8,55.5,30.08,East,90,0.0,0.0,42,0.00,,,0.00,pywws,2013-08-15 18:34:00,
2013-08-15 14:40:00,75.7,49.7,30.08,West,270,0.0,0.7,40,0.00,,,0.00,pywws,2013-08-15 18:40:00,
2013-08-15 14:46:00,73.9,52.4,30.08,North,0,0.0,0.0,47,0.00,,,0.00,pywws,2013-08-15 18:46:00,
2013-08-15 14:53:00,74.1,52.6,30.08,North,0,0.0,0.0,47,0.00,,,0.00,pywws,2013-08-15 18:53:00,
2013-08-15 14:59:00,75.9,54.2,30.07,SE,135,0.0,1.6,47,0.00,,,0.00,pywws,2013-08-15 18:59:00,
2013-08-15 15:04:00,77.4,54.9,30.07,South,180,0.0,0.0,46,0.00,,,0.00,pywws,2013-08-15 19:04:00,
2013-08-15 15:10:00,78.8,55.0,30.07,West,270,0.0,0.0,44,0.00,,,0.00,pywws,2013-08-15 19:10:00,
2013-08-15 15:16:00,78.3,50.5,30.08,West,270,0.0,0.7,38,0.00,,,0.00,pywws,2013-08-15 19:16:00,
2013-08-15 15:21:00,77.7,48.6,30.07,West,270,0.0,0.7,36,0.00,,,0.00,pywws,2013-08-15 19:21:00,
2013-08-15 15:26:00,79.2,52.0,30.08,West,270,0.0,1.6,39,0.00,,,0.00,pywws,2013-08-15 19:26:00,
2013-08-15 15:32:00,77.9,50.9,30.07,West,270,0.0,0.0,39,0.00,,,0.00,pywws,2013-08-15 19:32:00,
2013-08-15 15:38:00,76.5,50.3,30.06,West,270,0.0,0.7,40,0.00,,,0.00,pywws,2013-08-15 19:38:00,
2013-08-15 15:44:00,79.3,52.9,30.06,West,270,0.0,2.2,40,0.00,,,0.00,pywws,2013-08-15 19:44:00,
2013-08-15 15:50:00,80.1,52.8,30.07,SW,225,0.0,2.2,39,0.00,,,0.00,pywws,2013-08-15 19:50:00,
2013-08-15 15:56:00,78.6,51.6,30.06,SE,135,0.0,0.0,39,0.00,,,0.00,pywws,2013-08-15 19:56:00,
2013-08-15 16:02:00,80.2,53.7,30.07,North,0,0.0,0.0,40,0.00,,,0.00,pywws,2013-08-15 20:02:00,
2013-08-15 16:07:00,77.7,50.1,30.06,West,270,0.0,0.0,38,0.00,,,0.00,pywws,2013-08-15 20:07:00,
2013-08-15 16:12:00,79.5,54.4,30.06,South,180,0.0,3.1,42,0.00,,,0.00,pywws,2013-08-15 20:12:00,
2013-08-15 16:18:00,77.7,50.1,30.06,South,180,0.0,0.0,38,0.00,,,0.00,pywws,2013-08-15 20:18:00,
2013-08-15 16:23:00,77.4,51.1,30.06,South,180,0.0,0.0,40,0.00,,,0.00,pywws,2013-08-15 20:23:00,
2013-08-15 16:29:00,74.8,50.2,30.06,West,270,0.0,0.7,42,0.00,,,0.00,pywws,2013-08-15 20:29:00,
2013-08-15 16:34:00,75.4,51.9,30.07,North,0,0.0,0.0,44,0.00,,,0.00,pywws,2013-08-15 20:34:00,
2013-08-15 16:40:00,77.2,52.9,30.06,SE,135,0.0,0.0,43,0.00,,,0.00,pywws,2013-08-15 20:40:00,
2013-08-15 16:46:00,77.0,50.1,30.07,NW,315,0.0,0.7,39,0.00,,,0.00,pywws,2013-08-15 20:46:00,
2013-08-15 16:51:00,74.5,49.9,30.07,North,0,0.0,0.0,42,0.00,,,0.00,pywws,2013-08-15 20:51:00,
2013-08-15 16:56:00,77.7,51.5,30.07,SW,225,0.0,0.0,40,0.00,,,0.00,pywws,2013-08-15 20:56:00,
2013-08-15 17:02:00,78.3,53.3,30.06,West,270,0.0,0.0,42,0.00,,,0.00,pywws,2013-08-15 21:02:00,
2013-08-15 17:07:00,76.6,50.5,30.07,West,270,0.0,0.7,40,0.00,,,0.00,pywws,2013-08-15 21:07:00,
2013-08-15 17:13:00,76.3,52.7,30.07,South,180,0.0,0.0,44,0.00,,,0.00,pywws,2013-08-15 21:13:00,
2013-08-15 17:18:00,75.0,52.2,30.07,West,270,0.0,0.0,45,0.00,,,0.00,pywws,2013-08-15 21:18:00,
2013-08-15 17:24:00,73.8,51.7,30.07,West,270,0.0,0.0,46,0.00,,,0.00,pywws,2013-08-15 21:24:00,
2013-08-15 17:31:00,72.1,50.2,30.07,West,270,0.0,0.7,46,0.00,,,0.00,pywws,2013-08-15 21:31:00,
2013-08-15 17:36:00,72.5,49.9,30.06,North,0,0.0,0.0,45,0.00,,,0.00,pywws,2013-08-15 21:36:00,
2013-08-15 17:42:00,73.4,53.1,30.06,North,0,0.0,0.0,49,0.00,,,0.00,pywws,2013-08-15 21:42:00,
2013-08-15 17:47:00,73.6,52.1,30.06,NW,315,0.0,0.0,47,0.00,,,0.00,pywws,2013-08-15 21:47:00,
2013-08-15 17:53:00,73.6,53.2,30.06,South,180,0.0,0.0,49,0.00,,,0.00,pywws,2013-08-15 21:53:00,
2013-08-15 17:58:00,72.7,51.3,30.07,South,180,0.0,0.0,47,0.00,,,0.00,pywws,2013-08-15 21:58:00,
2013-08-15 18:04:00,72.5,50.5,30.07,West,270,0.0,0.0,46,0.00,,,0.00,pywws,2013-08-15 22:04:00,
2013-08-15 18:10:00,72.7,51.8,30.07,West,270,0.0,0.0,48,0.00,,,0.00,pywws,2013-08-15 22:10:00,
2013-08-15 18:15:00,72.5,51.7,30.08,South,180,0.0,0.0,48,0.00,,,0.00,pywws,2013-08-15 22:15:00,
2013-08-15 18:21:00,72.1,50.8,30.07,West,270,0.0,0.0,47,0.00,,,0.00,pywws,2013-08-15 22:21:00,
2013-08-15 18:26:00,71.6,52.0,30.07,East,90,0.0,0.0,50,0.00,,,0.00,pywws,2013-08-15 22:26:00,
2013-08-15 18:32:00,71.1,52.5,30.07,East,90,0.0,0.0,52,0.00,,,0.00,pywws,2013-08-15 22:32:00,
2013-08-15 18:39:00,70.5,52.6,30.07,West,270,0.0,0.0,53,0.00,,,0.00,pywws,2013-08-15 22:39:00,
2013-08-15 18:45:00,70.2,52.2,30.07,South,180,0.0,0.0,53,0.00,,,0.00,pywws,2013-08-15 22:45:00,
2013-08-15 18:50:00,70.2,53.2,30.07,East,90,0.0,0.0,55,0.00,,,0.00,pywws,2013-08-15 22:50:00,
2013-08-15 18:56:00,70.2,52.7,30.07,North,0,0.0,0.0,54,0.00,,,0.00,pywws,2013-08-15 22:56:00,
2013-08-15 19:02:00,69.3,53.4,30.08,West,270,0.0,0.0,57,0.00,,,0.00,pywws,2013-08-15 23:02:00,
2013-08-15 19:08:00,69.1,53.2,30.09,West,270,0.0,0.0,57,0.00,,,0.00,pywws,2013-08-15 23:08:00,
2013-08-15 19:14:00,68.4,53.5,30.09,West,270,0.0,0.0,59,0.00,,,0.00,pywws,2013-08-15 23:14:00,
2013-08-15 19:19:00,67.3,54.2,30.09,West,270,0.0,0.0,63,0.00,,,0.00,pywws,2013-08-15 23:19:00,
2013-08-15 19:25:00,66.7,54.2,30.09,West,270,0.0,0.0,64,0.00,,,0.00,pywws,2013-08-15 23:25:00,
2013-08-15 19:31:00,66.2,54.1,30.09,North,0,0.0,0.0,65,0.00,,,0.00,pywws,2013-08-15 23:31:00,
2013-08-15 19:36:00,65.7,54.4,30.09,North,0,0.0,0.0,67,0.00,,,0.00,pywws,2013-08-15 23:36:00,
2013-08-15 19:42:00,64.8,55.1,30.09,North,0,0.0,0.0,71,0.00,,,0.00,pywws,2013-08-15 23:42:00,
2013-08-15 19:47:00,64.0,55.2,30.09,North,0,0.0,0.0,73,0.00,,,0.00,pywws,2013-08-15 23:47:00,
2013-08-15 19:53:00,63.3,54.9,30.10,North,0,0.0,0.0,74,0.00,,,0.00,pywws,2013-08-15 23:53:00,
2013-08-15 19:58:00,62.6,54.6,30.10,North,0,0.0,0.0,75,0.00,,,0.00,pywws,2013-08-15 23:58:00,
2013-08-15 20:04:00,62.1,54.4,30.11,North,0,0.0,0.0,76,0.00,,,0.00,pywws,2013-08-16 00:04:00,
2013-08-15 20:10:00,61.3,54.1,30.11,North,0,0.0,0.0,77,0.00,,,0.00,pywws,2013-08-16 00:10:00,
2013-08-15 20:16:00,60.8,53.9,30.10,North,0,0.0,0.0,78,0.00,,,0.00,pywws,2013-08-16 00:16:00,
2013-08-15 20:22:00,60.4,54.2,30.11,North,0,0.0,0.0,80,0.00,,,0.00,pywws,2013-08-16 00:22:00,
2013-08-15 20:28:00,60.1,54.9,30.11,North,0,0.0,0.0,83,0.00,,,0.00,pywws,2013-08-16 00:28:00,
2013-08-15 20:34:00,59.7,54.5,30.11,North,0,0.0,0.0,83,0.00,,,0.00,pywws,2013-08-16 00:34:00,
2013-08-15 20:40:00,59.2,54.0,30.12,North,0,0.0,0.0,83,0.00,,,0.00,pywws,2013-08-16 00:40:00,
2013-08-15 20:45:00,59.0,53.8,30.12,North,0,0.0,0.0,83,0.00,,,0.00,pywws,2013-08-16 00:45:00,
2013-08-15 20:50:00,58.6,54.1,30.12,North,0,0.0,0.0,85,0.00,,,0.00,pywws,2013-08-16 00:50:00,
2013-08-15 20:56:00,58.5,54.0,30.13,North,0,0.0,0.0,85,0.00,,,0.00,pywws,2013-08-16 00:56:00,
2013-08-15 21:02:00,58.1,53.9,30.13,North,0,0.0,0.0,86,0.00,,,0.00,pywws,2013-08-16 01:02:00,
2013-08-15 21:07:00,57.9,53.8,30.13,North,0,0.0,0.0,86,0.00,,,0.00,pywws,2013-08-16 01:07:00,
2013-08-15 21:13:00,57.6,53.7,30.14,North,0,0.0,0.0,87,0.00,,,0.00,pywws,2013-08-16 01:13:00,
2013-08-15 21:18:00,57.4,53.9,30.14,North,0,0.0,0.0,88,0.00,,,0.00,pywws,2013-08-16 01:18:00,
2013-08-15 21:24:00,56.8,53.6,30.14,North,0,0.0,0.0,89,0.00,,,0.00,pywws,2013-08-16 01:24:00,
2013-08-15 21:30:00,56.7,53.8,30.14,North,0,0.0,0.0,90,0.00,,,0.00,pywws,2013-08-16 01:30:00,
2013-08-15 21:36:00,56.7,54.1,30.14,North,0,0.0,0.0,91,0.00,,,0.00,pywws,2013-08-16 01:36:00,
2013-08-15 21:43:00,56.3,53.7,30.15,North,0,0.0,0.0,91,0.00,,,0.00,pywws,2013-08-16 01:43:00,
2013-08-15 21:49:00,56.1,53.8,30.15,North,0,0.0,0.0,92,0.00,,,0.00,pywws,2013-08-16 01:49:00,
2013-08-15 21:54:00,55.9,53.6,30.15,North,0,0.0,0.0,92,0.00,,,0.00,pywws,2013-08-16 01:54:00,
2013-08-15 22:01:00,55.6,53.6,30.16,North,0,0.0,0.0,93,0.00,,,0.00,pywws,2013-08-16 02:01:00,
2013-08-15 22:06:00,55.2,53.2,30.16,North,0,0.0,0.0,93,0.00,,,0.00,pywws,2013-08-16 02:06:00,
2013-08-15 22:14:00,55.4,53.7,30.16,North,0,0.0,0.0,94,0.00,,,0.00,pywws,2013-08-16 02:14:00,
2013-08-15 22:19:00,55.2,53.5,30.16,North,0,0.0,0.0,94,0.00,,,0.00,pywws,2013-08-16 02:19:00,
2013-08-15 22:25:00,55.2,53.8,30.15,North,0,0.0,0.0,95,0.00,,,0.00,pywws,2013-08-16 02:25:00,
2013-08-15 22:30:00,55.0,53.6,30.15,North,0,0.0,0.0,95,0.00,,,0.00,pywws,2013-08-16 02:30:00,
2013-08-15 22:36:00,55.0,53.9,30.15,North,0,0.0,0.0,96,0.00,,,0.00,pywws,2013-08-16 02:36:00,
2013-08-15 22:42:00,54.9,53.7,30.15,North,0,0.0,0.0,96,0.00,,,0.00,pywws,2013-08-16 02:42:00,
2013-08-15 22:50:00,54.7,53.6,30.15,North,0,0.0,0.0,96,0.00,,,0.00,pywws,2013-08-16 02:50:00,
2013-08-15 22:57:00,54.5,53.4,30.15,North,0,0.0,0.0,96,0.00,,,0.00,pywws,2013-08-16 02:57:00,
2013-08-15 23:02:00,54.1,53.0,30.15,North,0,0.0,0.0,96,0.00,,,0.00,pywws,2013-08-16 03:02:00,
2013-08-15 23:10:00,54.0,53.1,30.15,North,0,0.0,0.0,97,0.00,,,0.00,pywws,2013-08-16 03:10:00,
2013-08-15 23:16:00,54.1,53.3,30.15,North,0,0.0,0.0,97,0.00,,,0.00,pywws,2013-08-16 03:16:00,
2013-08-15 23:22:00,53.8,52.9,30.15,North,0,0.0,0.0,97,0.00,,,0.00,pywws,2013-08-16 03:22:00,
2013-08-15 23:28:00,53.6,52.8,30.15,North,0,0.0,0.0,97,0.00,,,0.00,pywws,2013-08-16 03:28:00,
2013-08-15 23:34:00,52.9,52.3,30.16,North,0,0.0,0.0,98,0.00,,,0.00,pywws,2013-08-16 03:34:00,
2013-08-15 23:40:00,53.1,52.5,30.15,North,0,0.0,0.0,98,0.00,,,0.00,pywws,2013-08-16 03:40:00,
2013-08-15 23:46:00,53.1,52.5,30.15,North,0,0.0,0.0,98,0.00,,,0.00,pywws,2013-08-16 03:46:00,
2013-08-15 23:54:00,52.9,52.3,30.16,North,0,0.0,0.0,98,0.00,,,0.00,pywws,2013-08-16 03:54:00,
2013-08-15 23:59:00,52.9,52.3,30.16,North,0,0.0,0.0,98,0.00,,,0.00,pywws,2013-08-16 03:59:00,